Baldwin, LA (70514)

11:53 AM CDT on March 30, 2015 (GMT -0500)
Dalbor Station | | Change Station
CLOSE
Current Station
Personal Weather Station
Location: Jeanerette, LA
Elevation: 33 ft
Nearby Weather Stations
Active Advisory: Flood Warning

Elev 33 ft 29.93 °N, 91.68 °W | Updated 6 minutes ago

Partly Cloudy
Partly Cloudy
78.4 °F
Feels Like 81 °F
N
4.2
Wind Variable Wind from WSW

Today
High -- | Low -- °F
--% Chance of Precip.
Yesterday
High -- | Low -- °F
Precip. -- in
6:58 AM 7:23 PM
Waxing Gibbous, 81% visible
Pressure 30.24 in
Visibility 10.0 miles
Clouds Few 2400 ft
Scattered Clouds 3400 ft
Mostly Cloudy 5500 ft
Heat Index 81 °F
Dew Point 68 °F
Humidity 70%
Rainfall 0.00 in
Snow Depth Not available.
UV 5 out of 12
Pollen 10.40 out of 12
Air Quality Not available.
Flu Activity Not available.
METAR KPTN 301635Z AUTO 25010G14KT 10SM FEW024 SCT034 BKN055 24/18 A3024 RMK AO1

More Conditions Fewer Conditions

Pressure 30.24 in
Visibility 10.0 miles
Clouds Few 2400 ft
Scattered Clouds 3400 ft
Mostly Cloudy 5500 ft
Heat Index 81 °F
Dew Point 68 °F
Humidity 70%
Rainfall 0.00 in
Snow Depth Not available.
UV 5 out of 12
Pollen 10.40 out of 12
Air Quality Not available.
Flu Activity Not available.
METAR KPTN 301635Z AUTO 25010G14KT 10SM FEW024 SCT034 BKN055 24/18 A3024 RMK AO1

More Conditions Fewer Conditions

10-Day Weather Forecast

Almanac

Astronomy

Mar. 30, 2015 Rise Set
Actual Time
Civil Twilight
Nautical Twilight
Astronomical Twilight
Moon
Length of Visible Light
Length of Day
Tomorrow will be .
, % of the Moon is Illuminated

Today's Extremes

State Highs State Lows

Community

WunderPhotos

Upload Photos

1,809,536 photos uploaded!

WunderBlogs® & News

Nearby

Air Quality

  Air Quality AQ Index Pollutant
Not available.

Snow Depth

Station Depth Elevation

Earthquake Activity

City Distance Mag. Time & Date
Minimum magnitude displayed is 2.5.

Coastal Water Temperatures

Place Temperature

Stations

Nearby Weather Stations

Station Location Temp. Windchill Dew Point Humidity Wind Precip. Elev Updated Type
                   
Flood Warning
Statement as of 10:22 AM CDT on March 30, 2015

The National Weather Service in Lake Charles has issued a

* Flood Warning for
the Atchafalaya River at Morgan City.
* From Thursday morning to Friday evening... or until the warning is
cancelled.
* At 9:00 am Monday the stage was 5.4 feet.
* Minor flooding is forecast.
* Flood stage is 6.0 feet.
* Forecast... the river is expected to rise to near flood stage
Thursday morning.
* Impact... at stages near 6.0 feet... flood stage. The city dock will
be under water. Water will cover the lower end of Belleview front
street in Berwick. Vessel traffic will be affected by stronger
river current and vessel traffic safety rules will be strictly
enforced by the U.S. Coast Guard.


Lat... Lon 2995 9147 2986 9139 2951 9154 2939 9113
      2980 9110 2997 9124